Time;durP1;ratioP1;P1;durP2;ratioP2;P2;SDS_P1;SDS_P2;PMS_P1;PMS_P2;Temp;Humidity;BMP_temperature;BMP_pressure;BME280_temperature;BME280_humidity;BME280_pressure;Samples;Min_cycle;Max_cycle;Signal;HPM_P1;HPM_P2
2023/07/05 00:01:41;;;;;;;7.27;5.47;;;;;;;;;;6164261;28;20188;-65
2023/07/05 00:04:42;;;;;;;6.60;5.47;;;;;;;;;;6181703;28;20191;-65
2023/07/05 00:07:43;;;;;;;5.90;4.80;;;;;;;;;;6189109;28;20203;-65
2023/07/05 00:10:45;;;;;;;5.17;4.60;;;;;;;;;;6183455;28;20199;-65
2023/07/05 00:13:46;;;;;;;5.77;5.00;;;;;;;;;;6198356;28;20282;-65
2023/07/05 00:16:47;;;;;;;6.30;5.23;;;;;;;;;;6199638;28;20239;-64
2023/07/05 00:19:52;;;;;;;7.30;5.57;;;;;;;;;;6177698;28;20212;-65
2023/07/05 00:22:53;;;;;;;7.67;5.53;;;;;;;;;;6200582;28;20234;-65
2023/07/05 00:25:54;;;;;;;5.60;5.10;;;;;;;;;;6176881;28;20198;-65
2023/07/05 00:28:55;;;;;;;7.20;5.50;;;;;;;;;;6175878;28;20247;-65
2023/07/05 00:31:56;;;;;;;5.10;4.53;;;;;;;;;;6174849;28;20220;-65
2023/07/05 00:34:57;;;;;;;6.60;5.27;;;;;;;;;;6185063;28;20210;-65
2023/07/05 00:37:58;;;;;;;6.40;5.37;;;;;;;;;;6183015;28;20216;-65
2023/07/05 00:40:59;;;;;;;5.33;4.83;;;;;;;;;;6182880;28;20184;-64
2023/07/05 00:44:00;;;;;;;6.20;5.10;;;;;;;;;;6190881;28;20283;-64
2023/07/05 00:47:05;;;;;;;6.57;5.40;;;;;;;;;;6188636;28;20195;-65
2023/07/05 00:50:27;;;;;;;5.37;4.87;;;;;;;;;;6189102;28;20185;-64
2023/07/05 00:53:29;;;;;;;5.60;5.00;;;;;;;;;;6194129;28;20279;-64
2023/07/05 00:56:37;;;;;;;6.37;5.20;;;;;;;;;;6204366;28;20236;-64
2023/07/05 00:59:41;;;;;;;5.90;4.53;;;;;;;;;;6198288;28;20195;-64
2023/07/05 01:02:45;;;;;;;5.00;4.40;;;;;;;;;;6197515;28;20242;-64
2023/07/05 01:05:46;;;;;;;5.40;4.57;;;;;;;;;;6199586;28;20188;-64
2023/07/05 01:08:47;;;;;;;6.00;4.50;;;;;;;;;;6169629;28;20200;-64
2023/07/05 01:12:06;;;;;;;5.27;4.20;;;;;;;;;;6173687;28;20203;-64
2023/07/05 01:15:08;;;;;;;6.47;4.07;;;;;;;;;;6198271;28;20279;-64
2023/07/05 01:18:21;;;;;;;6.47;4.20;;;;;;;;;;6198300;28;20306;-64
2023/07/05 01:21:22;;;;;;;7.27;5.10;;;;;;;;;;6175983;28;20263;-65
2023/07/05 01:24:45;;;;;;;5.37;4.30;;;;;;;;;;6177714;28;20189;-65
2023/07/05 01:27:46;;;;;;;7.63;4.57;;;;;;;;;;6178288;28;20201;-65
2023/07/05 01:30:50;;;;;;;5.13;4.50;;;;;;;;;;6198434;28;20195;-65
2023/07/05 01:33:57;;;;;;;4.10;3.67;;;;;;;;;;6179685;28;20192;-65
2023/07/05 01:36:58;;;;;;;5.70;4.40;;;;;;;;;;6181237;28;20299;-65
2023/07/05 01:39:59;;;;;;;8.43;4.33;;;;;;;;;;6195746;28;20193;-65
2023/07/05 01:43:06;;;;;;;5.93;3.87;;;;;;;;;;6179620;28;20193;-65
2023/07/05 01:46:22;;;;;;;5.03;4.40;;;;;;;;;;6209368;28;20211;-65
2023/07/05 01:49:37;;;;;;;5.10;4.50;;;;;;;;;;6187931;28;20194;-65
2023/07/05 01:52:53;;;;;;;4.87;3.83;;;;;;;;;;6194241;28;20220;-65
2023/07/05 01:56:00;;;;;;;6.93;4.40;;;;;;;;;;6188792;28;20197;-65
2023/07/05 01:59:04;;;;;;;5.30;3.80;;;;;;;;;;6198124;28;20263;-65
2023/07/05 02:02:06;;;;;;;4.50;3.63;;;;;;;;;;6180523;28;20196;-65
2023/07/05 02:05:09;;;;;;;4.20;3.20;;;;;;;;;;6195161;28;20196;-65
2023/07/05 02:08:10;;;;;;;6.80;4.00;;;;;;;;;;6199242;28;20204;-65
2023/07/05 02:11:11;;;;;;;4.77;4.27;;;;;;;;;;6187516;28;20282;-65
2023/07/05 02:14:12;;;;;;;5.17;4.10;;;;;;;;;;6186578;28;20213;-65
2023/07/05 02:17:13;;;;;;;4.23;3.70;;;;;;;;;;6181761;28;20220;-65
2023/07/05 02:20:14;;;;;;;4.60;3.87;;;;;;;;;;6185299;28;20207;-65
2023/07/05 02:23:15;;;;;;;4.60;3.73;;;;;;;;;;6187044;28;20200;-65
2023/07/05 02:26:16;;;;;;;5.77;4.33;;;;;;;;;;6169070;28;20196;-65
2023/07/05 02:29:17;;;;;;;5.27;3.83;;;;;;;;;;6175903;28;20249;-65
2023/07/05 02:32:20;;;;;;;5.20;4.03;;;;;;;;;;6180087;28;20195;-65
2023/07/05 02:35:21;;;;;;;6.57;3.80;;;;;;;;;;6180943;28;20261;-65
2023/07/05 02:38:22;;;;;;;5.00;4.30;;;;;;;;;;6185864;28;20297;-65
2023/07/05 02:41:23;;;;;;;5.30;4.17;;;;;;;;;;6192263;28;20192;-65
2023/07/05 02:44:24;;;;;;;5.83;3.90;;;;;;;;;;6186823;28;20265;-65
2023/07/05 02:47:25;;;;;;;5.10;4.23;;;;;;;;;;6186361;28;20224;-65
2023/07/05 02:50:26;;;;;;;9.23;4.17;;;;;;;;;;6165616;28;20246;-65
2023/07/05 02:53:27;;;;;;;6.00;3.87;;;;;;;;;;6198282;28;20195;-64
2023/07/05 02:56:28;;;;;;;4.47;3.90;;;;;;;;;;6198626;28;20307;-65
2023/07/05 02:59:29;;;;;;;4.83;4.17;;;;;;;;;;6182382;28;20292;-64
2023/07/05 03:02:30;;;;;;;4.57;3.73;;;;;;;;;;6188355;28;20253;-64
2023/07/05 03:05:31;;;;;;;4.90;3.97;;;;;;;;;;6178541;28;20195;-64
2023/07/05 03:08:32;;;;;;;5.30;4.13;;;;;;;;;;6187176;28;20191;-64
2023/07/05 03:11:34;;;;;;;5.63;4.00;;;;;;;;;;6182147;28;20199;-64
2023/07/05 03:14:35;;;;;;;5.23;3.40;;;;;;;;;;6174026;28;20251;-64
2023/07/05 03:17:36;;;;;;;5.20;3.83;;;;;;;;;;6174225;28;20213;-64
2023/07/05 03:20:38;;;;;;;4.23;3.40;;;;;;;;;;6199235;28;20195;-64
2023/07/05 03:23:39;;;;;;;4.90;3.73;;;;;;;;;;6199744;28;20211;-64
2023/07/05 03:26:40;;;;;;;5.17;4.10;;;;;;;;;;6180658;28;20199;-64
2023/07/05 03:29:41;;;;;;;5.13;3.83;;;;;;;;;;6171217;28;20192;-64
2023/07/05 03:32:43;;;;;;;5.23;4.13;;;;;;;;;;6170126;28;20195;-64
2023/07/05 03:35:52;;;;;;;7.37;4.00;;;;;;;;;;6175533;28;20200;-64
2023/07/05 03:38:53;;;;;;;5.17;3.97;;;;;;;;;;6187548;28;20212;-64
2023/07/05 03:41:54;;;;;;;4.63;3.90;;;;;;;;;;6195791;28;20202;-64
2023/07/05 03:44:55;;;;;;;5.37;3.80;;;;;;;;;;6187403;28;20191;-64
2023/07/05 03:47:56;;;;;;;4.23;3.83;;;;;;;;;;6177175;28;20200;-64
2023/07/05 03:50:58;;;;;;;5.47;4.03;;;;;;;;;;6179864;28;20207;-64
2023/07/05 03:53:59;;;;;;;4.37;3.33;;;;;;;;;;6200001;28;20192;-64
2023/07/05 03:57:00;;;;;;;4.87;4.13;;;;;;;;;;6187272;28;20215;-65
2023/07/05 04:00:01;;;;;;;5.33;3.87;;;;;;;;;;6174141;28;20216;-64
2023/07/05 04:03:03;;;;;;;3.83;3.53;;;;;;;;;;6191648;28;20207;-65
2023/07/05 04:06:04;;;;;;;4.60;3.60;;;;;;;;;;6178021;28;20183;-62
2023/07/05 04:09:05;;;;;;;4.70;4.00;;;;;;;;;;6184771;28;20213;-62
2023/07/05 04:12:06;;;;;;;5.77;3.73;;;;;;;;;;6201192;28;20192;-62
2023/07/05 04:15:07;;;;;;;5.40;3.53;;;;;;;;;;6179587;28;20247;-63
2023/07/05 04:18:09;;;;;;;4.40;3.80;;;;;;;;;;6168403;28;20247;-64
2023/07/05 04:21:10;;;;;;;6.17;4.20;;;;;;;;;;6185094;28;20195;-63
2023/07/05 04:24:11;;;;;;;6.80;3.87;;;;;;;;;;6178320;28;20196;-63
2023/07/05 04:27:12;;;;;;;4.90;4.10;;;;;;;;;;6184443;28;20203;-63
2023/07/05 04:30:13;;;;;;;4.77;4.07;;;;;;;;;;6188970;28;20193;-63
2023/07/05 04:33:15;;;;;;;4.53;4.00;;;;;;;;;;6169206;28;20200;-63
2023/07/05 04:36:16;;;;;;;6.07;3.73;;;;;;;;;;6175818;28;20358;-66
2023/07/05 04:39:17;;;;;;;4.83;3.30;;;;;;;;;;6175708;28;20193;-66
2023/07/05 04:42:18;;;;;;;4.20;3.70;;;;;;;;;;6172210;28;20203;-66
2023/07/05 04:45:19;;;;;;;4.73;3.97;;;;;;;;;;6207765;28;20252;-65
2023/07/05 04:48:20;;;;;;;4.63;3.77;;;;;;;;;;6186248;28;20191;-63
2023/07/05 04:51:21;;;;;;;4.63;4.13;;;;;;;;;;6183553;28;20199;-63
2023/07/05 04:54:22;;;;;;;4.57;3.70;;;;;;;;;;6178411;28;20208;-63
2023/07/05 04:57:23;;;;;;;4.40;4.00;;;;;;;;;;6183131;28;20223;-63
2023/07/05 05:00:24;;;;;;;5.97;4.20;;;;;;;;;;6176804;28;20251;-63
2023/07/05 05:03:25;;;;;;;4.20;3.80;;;;;;;;;;6174702;28;20263;-62
2023/07/05 05:06:26;;;;;;;4.20;3.63;;;;;;;;;;6180742;28;20223;-62
2023/07/05 05:09:27;;;;;;;4.60;3.83;;;;;;;;;;6173162;28;20230;-62
2023/07/05 05:12:28;;;;;;;4.50;3.57;;;;;;;;;;6159445;28;20196;-62
2023/07/05 05:15:33;;;;;;;5.70;3.80;;;;;;;;;;6178166;28;20323;-62
2023/07/05 05:18:37;;;;;;;5.23;3.43;;;;;;;;;;6188750;28;20218;-63
2023/07/05 05:21:38;;;;;;;4.17;3.30;;;;;;;;;;6177929;28;20204;-63
2023/07/05 05:24:39;;;;;;;4.73;3.77;;;;;;;;;;6180592;28;20233;-63
2023/07/05 05:27:40;;;;;;;6.53;4.03;;;;;;;;;;6162146;28;20203;-63
2023/07/05 05:30:43;;;;;;;4.30;3.90;;;;;;;;;;6172167;28;20286;-63
2023/07/05 05:33:44;;;;;;;7.63;3.90;;;;;;;;;;6193786;28;20180;-63
2023/07/05 05:36:45;;;;;;;6.67;4.10;;;;;;;;;;6181253;28;20283;-63
2023/07/05 05:39:46;;;;;;;3.90;3.60;;;;;;;;;;6174705;28;20199;-63
2023/07/05 05:42:47;;;;;;;5.07;3.93;;;;;;;;;;6176576;28;20240;-63
2023/07/05 05:45:48;;;;;;;6.30;3.87;;;;;;;;;;6207525;28;20187;-63
2023/07/05 05:48:49;;;;;;;6.20;3.93;;;;;;;;;;6179237;28;20197;-63
2023/07/05 05:51:50;;;;;;;8.03;3.50;;;;;;;;;;6172841;28;20288;-63
2023/07/05 05:54:51;;;;;;;7.67;4.20;;;;;;;;;;6180410;28;20195;-63
2023/07/05 05:57:52;;;;;;;6.37;3.80;;;;;;;;;;6174568;28;20221;-63
2023/07/05 06:00:53;;;;;;;3.97;3.57;;;;;;;;;;6185162;28;20249;-63
2023/07/05 06:03:54;;;;;;;4.27;3.43;;;;;;;;;;6188507;28;20235;-63
2023/07/05 06:06:56;;;;;;;4.63;3.43;;;;;;;;;;6181470;28;20291;-63
2023/07/05 06:09:57;;;;;;;4.30;3.87;;;;;;;;;;6201938;28;20275;-63
2023/07/05 06:12:58;;;;;;;3.80;3.40;;;;;;;;;;6185747;28;20187;-63
2023/07/05 06:16:00;;;;;;;4.93;3.87;;;;;;;;;;6179196;28;20232;-63
2023/07/05 06:19:01;;;;;;;5.70;3.93;;;;;;;;;;6175683;28;20220;-63
2023/07/05 06:22:02;;;;;;;4.30;3.90;;;;;;;;;;6182630;28;20249;-63
2023/07/05 06:25:03;;;;;;;6.77;3.93;;;;;;;;;;6166896;28;20201;-63
2023/07/05 06:28:04;;;;;;;5.00;3.23;;;;;;;;;;6182729;28;20200;-63
2023/07/05 06:31:06;;;;;;;3.33;3.03;;;;;;;;;;6169289;28;20200;-63
2023/07/05 06:34:07;;;;;;;6.30;4.13;;;;;;;;;;6164349;28;20295;-63
2023/07/05 06:37:09;;;;;;;3.83;3.47;;;;;;;;;;6168655;28;20228;-63
2023/07/05 06:40:10;;;;;;;3.70;3.40;;;;;;;;;;6196670;28;20188;-63
2023/07/05 06:43:11;;;;;;;5.37;3.63;;;;;;;;;;6177618;28;20197;-63
2023/07/05 06:46:12;;;;;;;5.17;4.67;;;;;;;;;;6186441;28;20199;-63
2023/07/05 06:49:13;;;;;;;6.60;5.93;;;;;;;;;;6165393;28;20191;-63
2023/07/05 06:52:15;;;;;;;7.07;5.13;;;;;;;;;;6175668;28;20198;-63
2023/07/05 06:55:16;;;;;;;4.60;4.20;;;;;;;;;;6192389;28;20227;-63
2023/07/05 06:58:20;;;;;;;4.47;3.83;;;;;;;;;;6183777;28;20215;-63
2023/07/05 07:01:21;;;;;;;4.57;3.57;;;;;;;;;;6178470;28;20215;-63
2023/07/05 07:04:22;;;;;;;3.77;3.40;;;;;;;;;;6175236;28;20260;-63
2023/07/05 07:07:23;;;;;;;4.80;4.10;;;;;;;;;;6182468;28;20196;-65
2023/07/05 07:10:24;;;;;;;3.43;3.13;;;;;;;;;;6176266;28;20206;-63
2023/07/05 07:13:25;;;;;;;3.93;3.43;;;;;;;;;;6182624;28;20195;-63
2023/07/05 07:16:26;;;;;;;4.63;3.67;;;;;;;;;;6186273;28;20276;-63
2023/07/05 07:19:27;;;;;;;4.47;3.30;;;;;;;;;;6169740;28;20192;-63
2023/07/05 07:22:28;;;;;;;3.93;3.00;;;;;;;;;;6170689;28;20192;-63
2023/07/05 07:25:29;;;;;;;3.73;3.30;;;;;;;;;;6164619;28;20212;-64
2023/07/05 07:28:30;;;;;;;5.80;4.00;;;;;;;;;;6191011;28;20195;-66
2023/07/05 07:31:32;;;;;;;4.03;3.63;;;;;;;;;;6178916;28;20196;-63
2023/07/05 07:34:33;;;;;;;5.40;3.20;;;;;;;;;;6184456;28;20200;-63
2023/07/05 07:37:35;;;;;;;4.30;3.90;;;;;;;;;;6182563;28;20217;-63
2023/07/05 07:40:39;;;;;;;4.87;3.53;;;;;;;;;;6179127;28;20199;-63
2023/07/05 07:43:41;;;;;;;4.23;3.80;;;;;;;;;;6180018;28;20232;-63
2023/07/05 07:46:42;;;;;;;3.30;3.00;;;;;;;;;;6188748;28;20196;-64
2023/07/05 07:49:43;;;;;;;5.40;4.27;;;;;;;;;;6169704;28;20230;-63
2023/07/05 07:52:45;;;;;;;4.60;4.20;;;;;;;;;;6171394;28;20192;-63
2023/07/05 07:55:46;;;;;;;4.20;3.63;;;;;;;;;;6173387;28;20196;-63
2023/07/05 07:58:48;;;;;;;4.93;4.00;;;;;;;;;;6167862;28;20219;-64
2023/07/05 08:01:49;;;;;;;4.37;3.93;;;;;;;;;;6198298;28;20187;-64
2023/07/05 08:04:50;;;;;;;4.93;4.33;;;;;;;;;;6182663;28;20188;-64
2023/07/05 08:07:51;;;;;;;4.67;3.87;;;;;;;;;;6158857;28;20196;-64
2023/07/05 08:10:52;;;;;;;4.83;3.70;;;;;;;;;;6171364;28;20223;-64
2023/07/05 08:13:53;;;;;;;8.20;4.50;;;;;;;;;;6176312;28;20187;-64
2023/07/05 08:16:55;;;;;;;5.30;4.53;;;;;;;;;;6166191;28;20223;-64
2023/07/05 08:19:56;;;;;;;4.90;3.80;;;;;;;;;;6196633;28;20192;-64
2023/07/05 08:22:57;;;;;;;7.80;4.00;;;;;;;;;;6181226;28;20249;-65
2023/07/05 08:26:00;;;;;;;4.50;3.97;;;;;;;;;;6177700;28;20207;-64
2023/07/05 08:29:02;;;;;;;4.43;4.03;;;;;;;;;;6196846;28;20190;-64
2023/07/05 08:32:04;;;;;;;4.87;3.60;;;;;;;;;;6178048;28;20192;-64
2023/07/05 08:35:05;;;;;;;6.60;3.87;;;;;;;;;;6181535;28;20199;-64
2023/07/05 08:38:06;;;;;;;4.97;3.33;;;;;;;;;;6179132;28;20212;-64
2023/07/05 08:41:27;;;;;;;4.10;3.70;;;;;;;;;;6172593;28;20243;-64
2023/07/05 08:44:31;;;;;;;4.17;3.77;;;;;;;;;;6176792;28;20196;-64
2023/07/05 08:47:37;;;;;;;3.63;3.03;;;;;;;;;;6181086;28;20215;-64
2023/07/05 08:50:41;;;;;;;3.40;3.10;;;;;;;;;;6183558;28;20254;-64
2023/07/05 08:53:47;;;;;;;3.93;3.40;;;;;;;;;;6194370;28;20193;-64
2023/07/05 08:56:50;;;;;;;3.87;3.23;;;;;;;;;;6186800;28;20239;-64
2023/07/05 08:59:53;;;;;;;5.30;3.23;;;;;;;;;;6174434;28;20205;-65
2023/07/05 09:02:54;;;;;;;4.17;3.77;;;;;;;;;;6173281;28;20192;-65
2023/07/05 09:06:14;;;;;;;3.47;3.17;;;;;;;;;;6165701;28;20255;-64
2023/07/05 09:09:15;;;;;;;3.57;3.00;;;;;;;;;;6184231;28;20224;-63
2023/07/05 09:12:34;;;;;;;4.50;3.33;;;;;;;;;;6182257;28;20193;-64
2023/07/05 09:15:38;;;;;;;3.73;3.20;;;;;;;;;;6187162;28;20228;-63
2023/07/05 09:18:39;;;;;;;4.03;3.30;;;;;;;;;;6189638;28;20223;-64
2023/07/05 09:21:46;;;;;;;5.07;3.30;;;;;;;;;;6190421;28;20192;-64
2023/07/05 09:24:47;;;;;;;4.00;3.30;;;;;;;;;;6182752;28;20188;-64
2023/07/05 09:28:04;;;;;;;4.67;3.77;;;;;;;;;;6171693;28;20214;-64
2023/07/05 09:31:11;;;;;;;4.17;3.40;;;;;;;;;;6186730;28;20215;-64
2023/07/05 09:34:18;;;;;;;3.97;2.97;;;;;;;;;;6181806;28;20283;-64
2023/07/05 09:37:26;;;;;;;5.73;3.97;;;;;;;;;;6189531;28;20219;-64
2023/07/05 09:40:32;;;;;;;4.23;3.50;;;;;;;;;;6188359;28;20240;-64
2023/07/05 09:43:34;;;;;;;3.97;3.20;;;;;;;;;;6187136;28;20216;-64
2023/07/05 09:46:37;;;;;;;3.63;3.33;;;;;;;;;;6188594;28;20184;-64
2023/07/05 09:49:38;;;;;;;3.67;3.20;;;;;;;;;;6192484;28;20196;-63
2023/07/05 09:52:39;;;;;;;4.37;3.43;;;;;;;;;;6164693;28;20223;-65
2023/07/05 09:56:00;;;;;;;3.70;3.40;;;;;;;;;;6175750;28;20219;-64
2023/07/05 09:59:07;;;;;;;3.97;3.53;;;;;;;;;;6182215;28;20232;-64
2023/07/05 10:02:14;;;;;;;4.57;3.00;;;;;;;;;;6188847;28;20231;-64
2023/07/05 10:05:16;;;;;;;3.57;3.20;;;;;;;;;;6179379;28;20193;-64
2023/07/05 10:08:17;;;;;;;3.43;3.13;;;;;;;;;;6174488;28;20220;-64
2023/07/05 10:11:20;;;;;;;3.80;3.50;;;;;;;;;;6173355;28;20208;-64
2023/07/05 10:14:22;;;;;;;3.90;3.33;;;;;;;;;;6175827;28;20228;-64
2023/07/05 10:17:24;;;;;;;4.97;3.40;;;;;;;;;;6177814;28;20316;-64
2023/07/05 10:20:25;;;;;;;4.20;3.57;;;;;;;;;;6163112;28;20204;-65
2023/07/05 10:23:28;;;;;;;5.63;3.03;;;;;;;;;;6197549;28;20188;-64
2023/07/05 10:26:29;;;;;;;3.60;3.10;;;;;;;;;;6177632;28;20200;-64
2023/07/05 10:29:32;;;;;;;4.60;3.30;;;;;;;;;;6179242;28;20188;-64
2023/07/05 10:32:33;;;;;;;4.33;2.80;;;;;;;;;;6182248;28;20184;-64
2023/07/05 10:35:35;;;;;;;3.40;3.10;;;;;;;;;;6190049;28;20192;-64
2023/07/05 10:38:45;;;;;;;4.77;3.50;;;;;;;;;;6186196;28;20224;-64
2023/07/05 10:41:47;;;;;;;3.30;3.00;;;;;;;;;;6183397;28;20188;-64
2023/07/05 10:44:48;;;;;;;4.20;3.27;;;;;;;;;;6190171;28;20199;-68
2023/07/05 10:47:53;;;;;;;4.83;3.23;;;;;;;;;;6182286;28;20243;-64
2023/07/05 10:50:54;;;;;;;5.47;3.53;;;;;;;;;;6174966;28;20280;-64
2023/07/05 10:54:02;;;;;;;3.93;3.33;;;;;;;;;;6180716;28;20261;-64
2023/07/05 10:57:09;;;;;;;3.37;2.53;;;;;;;;;;6180757;28;20209;-64
2023/07/05 11:00:11;;;;;;;3.30;3.00;;;;;;;;;;6177695;28;20192;-64
2023/07/05 11:03:21;;;;;;;3.70;3.30;;;;;;;;;;6175712;28;20192;-64
2023/07/05 11:06:22;;;;;;;3.43;3.13;;;;;;;;;;6198662;28;20195;-65
2023/07/05 11:09:24;;;;;;;3.23;2.93;;;;;;;;;;6183893;28;20199;-64
2023/07/05 11:12:29;;;;;;;3.60;3.23;;;;;;;;;;6177887;28;20199;-65
2023/07/05 11:15:30;;;;;;;4.17;3.60;;;;;;;;;;6181450;28;20259;-65
2023/07/05 11:18:32;;;;;;;4.07;3.13;;;;;;;;;;6167232;28;20247;-65
2023/07/05 11:21:44;;;;;;;3.50;3.20;;;;;;;;;;6172873;28;20199;-64
2023/07/05 11:24:45;;;;;;;3.53;3.23;;;;;;;;;;6180042;28;20280;-64
2023/07/05 11:27:54;;;;;;;4.00;3.37;;;;;;;;;;6167984;28;20194;-65
2023/07/05 11:30:55;;;;;;;3.67;3.30;;;;;;;;;;6180760;28;20196;-64
2023/07/05 11:34:15;;;;;;;4.10;3.20;;;;;;;;;;6181799;28;20214;-64
2023/07/05 11:37:16;;;;;;;3.37;3.07;;;;;;;;;;6197313;28;20216;-64
2023/07/05 11:40:35;;;;;;;3.93;3.40;;;;;;;;;;6187048;28;20253;-64
2023/07/05 11:43:41;;;;;;;3.77;3.37;;;;;;;;;;6183919;28;20184;-64
2023/07/05 11:46:44;;;;;;;3.97;3.43;;;;;;;;;;6196252;28;20313;-64
2023/07/05 11:49:45;;;;;;;3.80;3.13;;;;;;;;;;6178166;28;20184;-64
2023/07/05 11:52:59;;;;;;;2.90;2.60;;;;;;;;;;6188055;28;20190;-64
2023/07/05 11:56:01;;;;;;;3.40;3.10;;;;;;;;;;6186820;28;20260;-65
2023/07/05 11:59:04;;;;;;;2.80;2.50;;;;;;;;;;6176232;28;20208;-65
2023/07/05 12:02:11;;;;;;;3.60;2.80;;;;;;;;;;6184572;28;20243;-65
2023/07/05 12:05:13;;;;;;;3.50;3.20;;;;;;;;;;6191789;28;20193;-65
2023/07/05 12:08:16;;;;;;;2.70;2.50;;;;;;;;;;6188082;28;20196;-65
2023/07/05 12:11:27;;;;;;;3.40;3.10;;;;;;;;;;6175990;28;20259;-65
2023/07/05 12:14:28;;;;;;;3.43;3.10;;;;;;;;;;6197340;28;20231;-65
2023/07/05 12:17:29;;;;;;;3.57;2.60;;;;;;;;;;6178599;28;20216;-65
2023/07/05 12:20:34;;;;;;;3.57;3.20;;;;;;;;;;6182546;28;20188;-65
2023/07/05 12:23:36;;;;;;;3.30;3.00;;;;;;;;;;6200059;28;20180;-65
2023/07/05 12:26:39;;;;;;;4.50;3.20;;;;;;;;;;6196588;28;20194;-65
2023/07/05 12:29:40;;;;;;;3.70;3.27;;;;;;;;;;6190755;28;20188;-65
2023/07/05 12:32:47;;;;;;;4.10;3.03;;;;;;;;;;6187247;28;20243;-65
2023/07/05 12:36:03;;;;;;;4.83;3.17;;;;;;;;;;6195419;28;20192;-65
2023/07/05 12:39:08;;;;;;;3.67;3.37;;;;;;;;;;6193337;28;20209;-65
2023/07/05 12:42:14;;;;;;;3.37;2.83;;;;;;;;;;6192108;28;20191;-65
2023/07/05 12:45:16;;;;;;;3.30;2.93;;;;;;;;;;6193179;28;20215;-64
2023/07/05 12:48:25;;;;;;;4.73;3.20;;;;;;;;;;6192532;28;20200;-65
2023/07/05 12:51:28;;;;;;;3.97;3.13;;;;;;;;;;6174537;28;20204;-65
2023/07/05 12:54:29;;;;;;;3.60;3.10;;;;;;;;;;6175991;28;20276;-65
2023/07/05 12:57:33;;;;;;;5.53;2.87;;;;;;;;;;6178933;28;21120;-65
2023/07/05 13:00:34;;;;;;;4.40;3.20;;;;;;;;;;6174080;28;20199;-64
2023/07/05 13:03:35;;;;;;;4.30;3.37;;;;;;;;;;6178705;28;20239;-66
2023/07/05 13:06:36;;;;;;;3.43;3.00;;;;;;;;;;6182475;28;20194;-66
2023/07/05 13:09:39;;;;;;;4.33;3.27;;;;;;;;;;6160820;28;20196;-66
2023/07/05 13:12:58;;;;;;;3.23;2.93;;;;;;;;;;6193491;28;20204;-66
2023/07/05 13:16:18;;;;;;;13.63;4.53;;;;;;;;;;6199343;28;20235;-68
2023/07/05 13:19:19;;;;;;;3.63;3.03;;;;;;;;;;6186448;28;20222;-68
2023/07/05 13:22:29;;;;;;;3.60;2.77;;;;;;;;;;6185412;28;20254;-67
2023/07/05 13:25:30;;;;;;;5.13;3.27;;;;;;;;;;6176001;28;20192;-67
2023/07/05 13:28:32;;;;;;;6.30;3.33;;;;;;;;;;6180450;28;20236;-69
2023/07/05 13:31:33;;;;;;;3.80;3.03;;;;;;;;;;6179666;28;20188;-68
2023/07/05 13:34:34;;;;;;;3.97;3.27;;;;;;;;;;6181285;28;20196;-68
2023/07/05 13:37:35;;;;;;;2.97;2.67;;;;;;;;;;6192091;28;20417;-67
2023/07/05 13:40:36;;;;;;;3.13;2.60;;;;;;;;;;6168249;28;20272;-68
2023/07/05 13:43:37;;;;;;;3.73;2.90;;;;;;;;;;6173618;28;20247;-68
2023/07/05 13:46:38;;;;;;;5.27;3.10;;;;;;;;;;6178470;28;20192;-68
2023/07/05 13:49:39;;;;;;;3.10;2.80;;;;;;;;;;6181112;28;20195;-70
2023/07/05 13:52:42;;;;;;;4.93;3.00;;;;;;;;;;6176058;28;20194;-68
2023/07/05 13:55:43;;;;;;;3.40;3.00;;;;;;;;;;6187365;28;20189;-69
2023/07/05 13:58:44;;;;;;;3.60;3.17;;;;;;;;;;6181238;28;20231;-67
2023/07/05 14:01:47;;;;;;;3.67;3.37;;;;;;;;;;6176838;28;20279;-67
2023/07/05 14:04:48;;;;;;;3.53;2.73;;;;;;;;;;6180147;28;20195;-68
2023/07/05 14:07:49;;;;;;;5.00;2.80;;;;;;;;;;6176022;28;20261;-67
2023/07/05 14:10:50;;;;;;;4.80;3.00;;;;;;;;;;6178983;28;20244;-68
2023/07/05 14:13:51;;;;;;;4.27;3.20;;;;;;;;;;6177453;28;20192;-68
2023/07/05 14:16:52;;;;;;;5.03;2.80;;;;;;;;;;6166824;28;20244;-67
2023/07/05 14:19:53;;;;;;;6.53;2.93;;;;;;;;;;6170885;28;20227;-67
2023/07/05 14:22:54;;;;;;;3.30;2.70;;;;;;;;;;6156412;28;20288;-68
2023/07/05 14:25:55;;;;;;;3.97;2.67;;;;;;;;;;6173034;28;20344;-68
2023/07/05 14:28:57;;;;;;;3.80;3.00;;;;;;;;;;6171004;28;20193;-68
2023/07/05 14:31:58;;;;;;;4.17;2.97;;;;;;;;;;6159913;28;20304;-68
2023/07/05 14:35:01;;;;;;;5.23;2.90;;;;;;;;;;6173417;28;20283;-68
2023/07/05 14:38:02;;;;;;;6.30;3.20;;;;;;;;;;6168563;28;20207;-68
2023/07/05 14:41:03;;;;;;;3.43;2.87;;;;;;;;;;6172673;28;20192;-69
2023/07/05 14:44:04;;;;;;;3.97;2.77;;;;;;;;;;6178381;28;20188;-68
2023/07/05 14:47:05;;;;;;;4.27;3.30;;;;;;;;;;6172690;28;20292;-68
2023/07/05 14:50:09;;;;;;;3.73;2.93;;;;;;;;;;6173274;28;20203;-67
2023/07/05 14:53:12;;;;;;;4.50;3.00;;;;;;;;;;6172735;28;20239;-68
2023/07/05 14:56:13;;;;;;;2.93;2.60;;;;;;;;;;6186050;28;20284;-68
2023/07/05 14:59:18;;;;;;;2.93;2.70;;;;;;;;;;6162988;28;20242;-68
2023/07/05 15:02:20;;;;;;;3.23;2.60;;;;;;;;;;6179333;28;20284;-67
2023/07/05 15:05:21;;;;;;;5.10;2.77;;;;;;;;;;6174584;28;20286;-67
2023/07/05 15:08:23;;;;;;;3.17;2.73;;;;;;;;;;6174922;28;20220;-67
2023/07/05 15:11:26;;;;;;;3.00;2.70;;;;;;;;;;6179034;28;20199;-67
2023/07/05 15:14:27;;;;;;;3.77;2.83;;;;;;;;;;6181911;28;20243;-67
2023/07/05 15:17:28;;;;;;;3.53;3.20;;;;;;;;;;6182833;28;20234;-67
2023/07/05 15:20:29;;;;;;;4.60;3.23;;;;;;;;;;6177211;28;20197;-67
2023/07/05 15:23:30;;;;;;;4.00;2.70;;;;;;;;;;6179987;28;20194;-66
2023/07/05 15:26:31;;;;;;;4.57;3.13;;;;;;;;;;6180881;28;20191;-68
2023/07/05 15:29:32;;;;;;;4.00;2.90;;;;;;;;;;6171942;28;20200;-66
2023/07/05 15:32:37;;;;;;;3.07;2.70;;;;;;;;;;6170320;28;20292;-68
2023/07/05 15:35:40;;;;;;;3.53;2.90;;;;;;;;;;6191733;28;20192;-67
2023/07/05 15:38:41;;;;;;;5.80;3.00;;;;;;;;;;6181178;28;20226;-66
2023/07/05 15:41:42;;;;;;;4.93;3.10;;;;;;;;;;6178812;28;20205;-67
2023/07/05 15:44:47;;;;;;;4.00;3.40;;;;;;;;;;6176041;28;20192;-67
2023/07/05 15:47:48;;;;;;;5.63;2.87;;;;;;;;;;6184398;28;20188;-67
2023/07/05 15:50:55;;;;;;;3.87;3.07;;;;;;;;;;6170818;28;20215;-68
2023/07/05 15:53:56;;;;;;;3.00;2.70;;;;;;;;;;6186668;28;20216;-67
2023/07/05 15:56:58;;;;;;;3.37;3.03;;;;;;;;;;6187721;28;20196;-68
2023/07/05 16:00:03;;;;;;;3.53;2.70;;;;;;;;;;6184346;28;20197;-66
2023/07/05 16:03:05;;;;;;;2.60;2.40;;;;;;;;;;6184897;28;20220;-68
2023/07/05 16:06:06;;;;;;;4.43;2.97;;;;;;;;;;6187620;28;20195;-68
2023/07/05 16:09:07;;;;;;;3.37;2.90;;;;;;;;;;6176171;28;20211;-68
2023/07/05 16:12:09;;;;;;;3.47;2.47;;;;;;;;;;6180271;28;20218;-69
2023/07/05 16:15:10;;;;;;;3.47;2.50;;;;;;;;;;6179331;28;20232;-68
2023/07/05 16:18:11;;;;;;;2.90;2.70;;;;;;;;;;6175079;28;20228;-68
2023/07/05 16:21:12;;;;;;;3.53;2.77;;;;;;;;;;6177067;28;20202;-68
2023/07/05 16:24:13;;;;;;;2.83;2.63;;;;;;;;;;6186467;28;20290;-69
2023/07/05 16:27:15;;;;;;;3.27;2.73;;;;;;;;;;6163286;28;20195;-69
2023/07/05 16:30:16;;;;;;;5.03;3.63;;;;;;;;;;6190051;28;20196;-69
2023/07/05 16:33:17;;;;;;;5.07;2.80;;;;;;;;;;6193788;28;20249;-70
2023/07/05 16:36:19;;;;;;;4.00;3.57;;;;;;;;;;6178716;28;20195;-69
2023/07/05 16:39:20;;;;;;;3.40;2.90;;;;;;;;;;6187676;28;20216;-69
2023/07/05 16:42:21;;;;;;;3.73;3.20;;;;;;;;;;6169844;28;20201;-68
2023/07/05 16:45:23;;;;;;;4.20;3.80;;;;;;;;;;6170678;28;20195;-69
2023/07/05 16:48:25;;;;;;;4.00;3.30;;;;;;;;;;6194129;28;20212;-69
2023/07/05 16:51:26;;;;;;;3.87;3.47;;;;;;;;;;6180294;28;20227;-68
2023/07/05 16:54:27;;;;;;;3.57;3.20;;;;;;;;;;6181997;28;20216;-69
2023/07/05 16:57:28;;;;;;;4.97;3.70;;;;;;;;;;6190985;28;20299;-69
2023/07/05 17:00:29;;;;;;;3.90;3.40;;;;;;;;;;6183923;28;20192;-69
2023/07/05 17:03:32;;;;;;;5.50;3.60;;;;;;;;;;6182087;28;20196;-68
2023/07/05 17:06:33;;;;;;;4.90;3.70;;;;;;;;;;6181210;28;20223;-65
2023/07/05 17:09:34;;;;;;;4.70;4.20;;;;;;;;;;6191000;28;20202;-67
2023/07/05 17:12:35;;;;;;;4.23;3.83;;;;;;;;;;6175664;28;20199;-67
2023/07/05 17:15:37;;;;;;;6.07;3.90;;;;;;;;;;6185801;28;20321;-69
2023/07/05 17:18:38;;;;;;;6.43;4.50;;;;;;;;;;6184518;28;20267;-66
2023/07/05 17:21:39;;;;;;;4.73;3.80;;;;;;;;;;6171497;28;20204;-66
2023/07/05 17:24:40;;;;;;;4.97;3.83;;;;;;;;;;6182372;28;20198;-66
2023/07/05 17:27:41;;;;;;;4.40;4.00;;;;;;;;;;6188637;28;20195;-66
2023/07/05 17:30:42;;;;;;;5.37;4.10;;;;;;;;;;6159376;28;20203;-67
2023/07/05 17:33:44;;;;;;;4.97;4.30;;;;;;;;;;6183236;28;20195;-67
2023/07/05 17:36:46;;;;;;;6.07;4.10;;;;;;;;;;6198183;28;20259;-67
2023/07/05 17:39:49;;;;;;;4.97;4.00;;;;;;;;;;6181310;28;20188;-68
2023/07/05 17:42:50;;;;;;;4.20;3.80;;;;;;;;;;6185560;28;20235;-65
2023/07/05 17:46:11;;;;;;;4.73;4.10;;;;;;;;;;6175902;28;20283;-67
2023/07/05 17:49:13;;;;;;;4.90;4.47;;;;;;;;;;6188501;28;20236;-67
2023/07/05 17:52:14;;;;;;;4.53;4.13;;;;;;;;;;6189235;28;20189;-67
2023/07/05 17:55:20;;;;;;;5.33;3.97;;;;;;;;;;6176583;28;20199;-67
2023/07/05 17:58:21;;;;;;;5.30;4.57;;;;;;;;;;6165035;28;20306;-66
2023/07/05 18:01:24;;;;;;;4.80;4.30;;;;;;;;;;6192592;28;20191;-67
2023/07/05 18:04:26;;;;;;;5.30;3.77;;;;;;;;;;6190662;28;20283;-67
2023/07/05 18:07:27;;;;;;;5.23;4.10;;;;;;;;;;6186049;28;20187;-67
2023/07/05 18:10:28;;;;;;;4.67;3.77;;;;;;;;;;6186013;28;20277;-67
2023/07/05 18:13:31;;;;;;;4.20;3.80;;;;;;;;;;6187996;28;20235;-67
2023/07/05 18:16:32;;;;;;;4.87;3.80;;;;;;;;;;6174859;28;20228;-66